createdAt,value
2023-03-26T00:01:16.894Z,77.04
2023-03-26T00:03:46.358Z,77.00
2023-03-26T00:06:15.953Z,76.96
2023-03-26T00:08:47.084Z,76.89
2023-03-26T00:11:16.196Z,76.85
2023-03-26T00:13:43.572Z,76.93
2023-03-26T00:16:11.544Z,77.01
2023-03-26T00:18:39.904Z,76.89
2023-03-26T00:21:07.377Z,76.96
2023-03-26T00:23:35.001Z,76.97
2023-03-26T00:26:04.028Z,77.05
2023-03-26T00:28:30.723Z,77.14
2023-03-26T00:31:02.433Z,77.05
2023-03-26T00:33:31.138Z,77.21
2023-03-26T00:36:01.363Z,77.16
2023-03-26T00:38:30.377Z,77.18
2023-03-26T00:41:05.276Z,77.05
2023-03-26T00:43:35.660Z,77.29
2023-03-26T00:46:02.888Z,77.09
2023-03-26T00:48:43.922Z,77.21
2023-03-26T00:51:17.116Z,77.23
2023-03-26T00:53:45.676Z,77.16
2023-03-26T00:56:13.540Z,77.27
2023-03-26T00:58:41.381Z,77.26
2023-03-26T01:01:14.206Z,77.36
2023-03-26T01:03:50.327Z,77.48
2023-03-26T01:06:27.596Z,77.72
2023-03-26T01:08:59.389Z,77.61
2023-03-26T01:11:29.967Z,77.83
2023-03-26T01:14:00.360Z,77.77
2023-03-26T01:16:38.471Z,78.08
2023-03-26T01:19:12.277Z,77.92
2023-03-26T01:21:39.133Z,78.13
2023-03-26T01:24:09.696Z,77.98
2023-03-26T01:26:53.396Z,78.00
2023-03-26T01:29:29.386Z,78.09
2023-03-26T01:32:01.957Z,78.73
2023-03-26T01:34:33.236Z,78.93
2023-03-26T01:37:04.008Z,79.54
2023-03-26T01:39:48.689Z,79.51
2023-03-26T01:42:28.090Z,80.36
2023-03-26T01:45:01.795Z,80.57
2023-03-26T01:47:29.510Z,81.32
2023-03-26T01:49:56.158Z,81.18
2023-03-26T01:52:26.155Z,81.48
2023-03-26T01:54:54.953Z,81.71
2023-03-26T01:57:44.699Z,81.39
2023-03-26T02:00:30.269Z,81.67
2023-03-26T02:03:18.775Z,81.56
2023-03-26T02:05:57.323Z,81.42
2023-03-26T02:08:39.097Z,81.32
2023-03-26T02:11:12.549Z,81.65
2023-03-26T02:13:42.227Z,81.51
2023-03-26T02:16:13.542Z,81.81
2023-03-26T02:18:40.471Z,82.08
2023-03-26T02:21:20.731Z,82.08
2023-03-26T02:23:57.157Z,81.84
2023-03-26T02:26:24.590Z,82.06
2023-03-26T02:29:04.226Z,81.87
2023-03-26T02:31:31.450Z,82.10
2023-03-26T02:33:58.261Z,82.40
2023-03-26T02:36:29.051Z,82.70
2023-03-26T02:38:59.611Z,82.37
2023-03-26T02:41:26.678Z,82.51
2023-03-26T02:43:57.515Z,82.79
2023-03-26T02:46:34.547Z,82.95
2023-03-26T02:49:21.788Z,82.73
2023-03-26T02:51:48.510Z,82.53
2023-03-26T02:54:25.583Z,82.68
2023-03-26T02:57:12.539Z,82.66
2023-03-26T03:00:21.353Z,82.44
2023-03-26T03:02:49.633Z,82.64
2023-03-26T03:05:32.640Z,82.68
2023-03-26T03:08:11.370Z,82.59
2023-03-26T03:10:43.183Z,82.56
2023-03-26T03:13:17.537Z,82.79
2023-03-26T03:15:44.231Z,82.43
2023-03-26T03:18:10.892Z,82.61
2023-03-26T03:20:37.516Z,82.41
2023-03-26T03:23:04.622Z,82.50
2023-03-26T03:25:33.139Z,82.45
2023-03-26T03:28:00.333Z,82.32
2023-03-26T03:30:27.345Z,82.30
2023-03-26T03:33:18.552Z,82.24
2023-03-26T03:35:47.478Z,82.10
2023-03-26T03:38:15.226Z,82.17
2023-03-26T03:40:46.858Z,82.27
2023-03-26T03:43:13.803Z,82.32
2023-03-26T03:45:50.757Z,82.44
2023-03-26T03:48:38.593Z,82.29
2023-03-26T03:51:06.202Z,82.73
2023-03-26T03:53:47.377Z,82.76
2023-03-26T03:56:18.400Z,82.65
2023-03-26T03:59:05.103Z,82.75
2023-03-26T04:01:34.357Z,82.89
2023-03-26T04:04:06.899Z,83.13
2023-03-26T04:06:52.491Z,83.05
2023-03-26T04:09:20.187Z,83.23
2023-03-26T04:11:47.331Z,83.42
2023-03-26T04:14:40.628Z,83.16
2023-03-26T04:17:25.830Z,83.06
2023-03-26T04:19:54.707Z,83.14
2023-03-26T04:22:23.092Z,83.56
2023-03-26T04:24:55.804Z,83.30
2023-03-26T04:27:32.541Z,83.42
2023-03-26T04:30:22.622Z,83.53
2023-03-26T04:33:03.312Z,83.32
2023-03-26T04:35:36.082Z,83.44
2023-03-26T04:38:07.202Z,83.30
2023-03-26T04:40:39.173Z,83.26
2023-03-26T04:43:34.905Z,83.17
2023-03-26T04:46:22.824Z,83.02
2023-03-26T04:48:55.016Z,82.97
2023-03-26T04:51:26.464Z,83.10
2023-03-26T04:54:00.009Z,82.84
2023-03-26T04:56:46.362Z,82.98
2023-03-26T04:59:35.121Z,82.82
2023-03-26T05:02:05.494Z,82.79
2023-03-26T05:04:40.541Z,82.88
2023-03-26T05:07:09.493Z,82.79
2023-03-26T05:09:42.338Z,82.72
2023-03-26T05:12:16.117Z,82.70
2023-03-26T05:14:50.751Z,82.70
2023-03-26T05:17:24.538Z,82.67
2023-03-26T05:19:53.982Z,82.60
2023-03-26T05:22:20.710Z,82.63
2023-03-26T05:25:08.315Z,82.50
2023-03-26T05:27:35.036Z,82.38
2023-03-26T05:30:03.077Z,82.38
2023-03-26T05:32:32.186Z,82.28
2023-03-26T05:34:59.123Z,82.27
2023-03-26T05:37:30.359Z,82.20
2023-03-26T05:40:03.503Z,82.09
2023-03-26T05:42:41.278Z,82.01
2023-03-26T05:45:25.807Z,81.96
2023-03-26T05:47:54.268Z,81.70
2023-03-26T05:50:22.878Z,81.65
2023-03-26T05:52:50.126Z,81.48
2023-03-26T05:55:45.108Z,81.32
2023-03-26T05:58:32.706Z,81.25
2023-03-26T06:01:19.184Z,80.98
2023-03-26T06:04:18.071Z,80.76
2023-03-26T06:06:52.138Z,80.39
2023-03-26T06:09:18.954Z,80.41
2023-03-26T06:11:45.518Z,80.11
2023-03-26T06:14:12.181Z,79.96
2023-03-26T06:16:46.270Z,79.65
2023-03-26T06:19:19.832Z,79.63
2023-03-26T06:21:54.545Z,79.27
2023-03-26T06:24:25.160Z,78.74
2023-03-26T06:27:20.558Z,78.27
2023-03-26T06:30:22.569Z,78.01
2023-03-26T06:33:15.889Z,77.52
2023-03-26T06:35:47.461Z,77.73
2023-03-26T06:38:15.280Z,77.56
2023-03-26T06:40:44.632Z,77.57
2023-03-26T06:43:26.649Z,77.35
2023-03-26T06:46:12.761Z,76.87
2023-03-26T06:48:58.976Z,76.84
2023-03-26T06:51:51.330Z,76.86
2023-03-26T06:54:47.062Z,76.90
2023-03-26T06:57:34.108Z,76.99
2023-03-26T07:00:33.147Z,77.04
2023-03-26T07:03:18.831Z,76.43
2023-03-26T07:06:15.065Z,75.90
2023-03-26T07:09:00.295Z,75.20
2023-03-26T07:11:45.859Z,74.42
2023-03-26T07:14:32.150Z,73.87
2023-03-26T07:17:06.815Z,73.12
2023-03-26T07:20:07.699Z,72.96
2023-03-26T07:22:35.086Z,72.80
2023-03-26T07:25:25.285Z,71.97
2023-03-26T07:28:19.859Z,71.96
2023-03-26T07:31:13.931Z,72.09
2023-03-26T07:34:18.334Z,72.22
2023-03-26T07:37:35.069Z,71.84
2023-03-26T07:40:40.700Z,70.80
2023-03-26T07:43:44.090Z,70.13
2023-03-26T07:46:36.412Z,70.13
2023-03-26T07:49:21.991Z,70.34
2023-03-26T07:52:09.984Z,70.37
2023-03-26T07:54:56.155Z,69.47
2023-03-26T07:58:02.705Z,69.53
2023-03-26T08:01:15.474Z,69.88
2023-03-26T08:04:23.860Z,69.61
2023-03-26T08:07:29.696Z,68.85
2023-03-26T08:10:27.517Z,67.89
2023-03-26T08:13:21.529Z,67.56
2023-03-26T08:16:05.162Z,67.19
2023-03-26T08:18:43.938Z,66.48
2023-03-26T08:21:16.539Z,66.49
2023-03-26T08:23:59.432Z,66.42
2023-03-26T08:26:35.518Z,66.89
2023-03-26T08:29:20.370Z,67.14
2023-03-26T08:31:48.779Z,67.10
2023-03-26T08:34:15.640Z,66.32
2023-03-26T08:36:42.315Z,66.10
2023-03-26T08:39:09.257Z,65.29
2023-03-26T08:42:07.298Z,65.55
2023-03-26T08:45:11.887Z,65.47
2023-03-26T08:47:59.944Z,65.24
2023-03-26T08:50:48.863Z,65.20
2023-03-26T08:53:24.654Z,64.74
2023-03-26T08:56:25.407Z,64.34
2023-03-26T08:59:31.932Z,63.81
2023-03-26T09:02:17.329Z,63.46
2023-03-26T09:05:10.858Z,62.59
2023-03-26T09:07:59.585Z,61.93
2023-03-26T09:11:10.701Z,61.97
2023-03-26T09:14:18.541Z,61.70
2023-03-26T09:16:45.442Z,61.25
2023-03-26T09:19:43.287Z,61.21
2023-03-26T09:22:22.346Z,61.24
2023-03-26T09:25:14.828Z,61.45
2023-03-26T09:28:21.256Z,60.94
2023-03-26T09:31:00.015Z,61.26
2023-03-26T09:33:32.589Z,60.39
2023-03-26T09:36:18.897Z,60.32
2023-03-26T09:38:54.071Z,59.95
2023-03-26T09:41:34.023Z,59.84
2023-03-26T09:44:15.476Z,59.33
2023-03-26T09:46:51.169Z,59.41
2023-03-26T09:49:54.600Z,59.70
2023-03-26T09:52:24.154Z,59.80
2023-03-26T09:54:59.807Z,60.22
2023-03-26T09:57:45.115Z,60.35
2023-03-26T10:00:54.227Z,60.63
2023-03-26T10:03:46.044Z,60.75
2023-03-26T10:06:31.011Z,60.70
2023-03-26T10:09:20.297Z,60.75
2023-03-26T10:12:06.007Z,60.89
2023-03-26T10:15:02.544Z,60.33
2023-03-26T10:17:33.041Z,60.33
2023-03-26T10:20:25.905Z,60.22
2023-03-26T10:23:36.500Z,60.12
2023-03-26T10:26:29.355Z,60.27
2023-03-26T10:29:31.338Z,59.54
2023-03-26T10:32:09.402Z,59.62
2023-03-26T10:34:51.229Z,59.75
2023-03-26T10:37:55.011Z,59.97
2023-03-26T10:40:27.085Z,60.04
2023-03-26T10:43:31.647Z,60.19
2023-03-26T10:46:16.792Z,60.32
2023-03-26T10:49:20.960Z,59.87
2023-03-26T10:51:56.498Z,59.72
2023-03-26T10:54:47.822Z,59.28
2023-03-26T10:57:42.666Z,59.59
2023-03-26T11:00:25.069Z,59.79
2023-03-26T11:03:19.126Z,59.86
2023-03-26T11:06:23.164Z,59.82
2023-03-26T11:09:01.370Z,59.11
2023-03-26T11:11:54.106Z,58.84
2023-03-26T11:14:34.318Z,59.13
2023-03-26T11:17:39.566Z,59.37
2023-03-26T11:20:28.099Z,59.43
2023-03-26T11:23:27.328Z,59.22
2023-03-26T11:26:01.329Z,59.45
2023-03-26T11:28:37.179Z,59.78
2023-03-26T11:31:13.113Z,59.81
2023-03-26T11:33:47.755Z,60.34
2023-03-26T11:36:20.976Z,60.80
2023-03-26T11:38:50.800Z,61.68
2023-03-26T11:41:32.300Z,62.07
2023-03-26T11:44:26.818Z,62.81
2023-03-26T11:47:00.667Z,63.37
2023-03-26T11:49:28.832Z,63.94
2023-03-26T11:51:55.976Z,65.29
2023-03-26T11:54:22.851Z,65.28
2023-03-26T11:57:04.864Z,65.37
2023-03-26T12:00:17.597Z,65.34
2023-03-26T12:02:46.265Z,65.67
2023-03-26T12:05:15.217Z,65.96
2023-03-26T12:07:49.099Z,66.25
2023-03-26T12:10:28.791Z,66.36
2023-03-26T12:12:59.830Z,66.95
2023-03-26T12:15:28.041Z,66.95
2023-03-26T12:17:57.589Z,66.98
2023-03-26T12:20:24.479Z,66.80
2023-03-26T12:22:58.624Z,66.73
2023-03-26T12:25:29.248Z,66.80
2023-03-26T12:28:16.677Z,66.79
2023-03-26T12:31:00.351Z,66.66
2023-03-26T12:33:35.284Z,67.03
2023-03-26T12:36:20.034Z,67.32
2023-03-26T12:39:43.066Z,68.10
2023-03-26T12:44:44.186Z,68.82
2023-03-26T12:44:59.216Z,69.53
2023-03-26T12:48:00.766Z,69.95
2023-03-26T12:50:34.584Z,70.14
2023-03-26T12:53:49.008Z,70.07
2023-03-26T12:56:46.147Z,70.04
2023-03-26T12:59:18.649Z,69.59
2023-03-26T13:01:55.736Z,69.56
2023-03-26T13:04:26.499Z,69.46
2023-03-26T13:07:02.615Z,69.07
2023-03-26T13:09:44.905Z,67.76
2023-03-26T13:12:38.344Z,66.22
2023-03-26T13:15:33.398Z,65.56
2023-03-26T13:18:18.304Z,65.45
2023-03-26T13:21:17.318Z,65.77
2023-03-26T13:24:06.017Z,65.21
2023-03-26T13:27:14.831Z,64.32
2023-03-26T13:30:01.610Z,64.23
2023-03-26T13:32:39.060Z,63.22
2023-03-26T13:35:27.307Z,62.76
2023-03-26T13:38:32.973Z,61.19
2023-03-26T13:41:33.090Z,59.10
2023-03-26T13:44:03.970Z,58.66
2023-03-26T13:46:42.671Z,58.07
2023-03-26T13:49:24.399Z,58.69
2023-03-26T13:52:09.917Z,58.25
2023-03-26T13:55:08.105Z,58.75
2023-03-26T13:57:43.024Z,58.94
2023-03-26T14:00:22.032Z,58.89
2023-03-26T14:02:58.455Z,58.42
2023-03-26T14:05:42.721Z,58.11
2023-03-26T14:08:26.338Z,58.39
2023-03-26T14:11:07.796Z,57.87
2023-03-26T14:13:56.811Z,57.80
2023-03-26T14:16:44.387Z,57.70
2023-03-26T14:19:41.256Z,56.50
2023-03-26T14:22:20.689Z,56.17
2023-03-26T14:25:08.452Z,55.37
2023-03-26T14:27:52.285Z,54.80
2023-03-26T14:30:41.948Z,54.10
2023-03-26T14:33:27.161Z,53.76
2023-03-26T14:36:05.065Z,53.76
2023-03-26T14:39:10.899Z,54.27
2023-03-26T14:41:54.026Z,54.60
2023-03-26T14:44:27.835Z,54.88
2023-03-26T14:47:15.797Z,55.25
2023-03-26T14:50:15.593Z,55.23
2023-03-26T14:52:52.258Z,54.98
2023-03-26T14:55:53.870Z,55.13
2023-03-26T14:58:24.737Z,55.01
2023-03-26T15:01:25.615Z,55.57
2023-03-26T15:04:31.629Z,55.70
2023-03-26T15:07:32.362Z,56.08
2023-03-26T15:10:12.056Z,56.24
2023-03-26T15:13:08.052Z,55.82
2023-03-26T15:16:09.502Z,56.18
2023-03-26T15:19:00.514Z,56.04
2023-03-26T15:21:34.285Z,56.36
2023-03-26T15:24:30.318Z,56.15
2023-03-26T15:27:26.886Z,56.04
2023-03-26T15:30:04.498Z,55.70
2023-03-26T15:32:40.752Z,55.84
2023-03-26T15:35:39.018Z,55.76
2023-03-26T15:38:17.881Z,55.76
2023-03-26T15:41:11.384Z,55.83
2023-03-26T15:46:50.104Z,55.93
2023-03-26T15:49:41.963Z,56.10
2023-03-26T15:52:28.417Z,56.11
2023-03-26T15:55:33.199Z,56.17
2023-03-26T15:58:07.842Z,55.48
2023-03-26T16:00:47.873Z,55.80
2023-03-26T16:03:31.210Z,56.21
2023-03-26T16:06:06.879Z,56.44
2023-03-26T16:08:40.703Z,56.31
2023-03-26T16:11:12.856Z,56.41
2023-03-26T16:13:44.952Z,56.35
2023-03-26T16:16:16.187Z,55.93
2023-03-26T16:19:23.135Z,55.79
2023-03-26T16:22:04.415Z,55.65
2023-03-26T16:24:40.201Z,55.89
2023-03-26T16:27:14.188Z,55.85
2023-03-26T16:30:02.685Z,56.03
2023-03-26T16:32:41.336Z,55.91
2023-03-26T16:35:15.059Z,56.32
2023-03-26T16:38:04.749Z,56.31
2023-03-26T16:40:35.204Z,56.12
2023-03-26T16:43:12.621Z,56.10
2023-03-26T16:46:06.967Z,56.44
2023-03-26T16:48:48.049Z,56.59
2023-03-26T16:51:53.679Z,56.67
2023-03-26T16:54:40.158Z,56.58
2023-03-26T16:57:28.289Z,56.77
2023-03-26T17:00:05.096Z,57.12
2023-03-26T17:03:13.997Z,57.05
2023-03-26T17:06:03.366Z,57.18
2023-03-26T17:08:42.159Z,57.37
2023-03-26T17:11:22.194Z,57.49
2023-03-26T17:14:21.297Z,57.33
2023-03-26T17:17:26.312Z,57.56
2023-03-26T17:23:39.640Z,57.26
2023-03-26T17:26:23.175Z,57.38
2023-03-26T17:29:11.419Z,57.49
2023-03-26T17:32:08.649Z,57.46
2023-03-26T17:34:40.266Z,57.51
2023-03-26T17:37:30.825Z,57.67
2023-03-26T17:40:01.810Z,57.50
2023-03-26T17:42:36.126Z,57.63
2023-03-26T17:45:29.027Z,57.65
2023-03-26T17:48:02.866Z,57.55
2023-03-26T17:50:34.742Z,57.71
2023-03-26T17:53:30.867Z,57.82
2023-03-26T17:56:04.102Z,58.05
2023-03-26T17:58:47.994Z,58.04
2023-03-26T18:01:41.506Z,58.31
2023-03-26T18:04:19.904Z,58.30
2023-03-26T18:07:26.324Z,58.48
2023-03-26T18:10:07.182Z,58.55
2023-03-26T18:13:01.990Z,58.47
2023-03-26T18:15:51.809Z,58.60
2023-03-26T18:18:27.516Z,58.61
2023-03-26T18:20:58.622Z,58.67
2023-03-26T18:23:37.463Z,58.68
2023-03-26T18:26:11.406Z,58.94
2023-03-26T18:28:45.450Z,58.93
2023-03-26T18:31:22.827Z,58.91
2023-03-26T18:33:55.146Z,59.09
2023-03-26T18:36:25.894Z,59.21
2023-03-26T18:38:59.200Z,59.29
2023-03-26T18:41:42.855Z,59.29
2023-03-26T18:44:16.757Z,59.31
2023-03-26T18:46:45.296Z,59.38
2023-03-26T18:49:15.494Z,59.54
2023-03-26T18:51:56.079Z,59.39
2023-03-26T18:54:32.145Z,59.47
2023-03-26T18:57:16.156Z,59.65
2023-03-26T18:59:48.830Z,59.73
2023-03-26T19:02:18.273Z,59.80
2023-03-26T19:04:49.314Z,59.92
2023-03-26T19:07:25.147Z,60.02
2023-03-26T19:09:56.427Z,60.01
2023-03-26T19:12:32.544Z,59.98
2023-03-26T19:15:14.728Z,60.00
2023-03-26T19:17:46.521Z,60.13
2023-03-26T19:20:28.071Z,60.10
2023-03-26T19:22:58.281Z,60.06
2023-03-26T19:25:30.909Z,60.31
2023-03-26T19:28:00.137Z,60.51
2023-03-26T19:30:39.928Z,60.96
2023-03-26T19:33:20.160Z,61.13
2023-03-26T19:36:00.227Z,61.41
2023-03-26T19:38:37.884Z,61.75
2023-03-26T19:41:06.112Z,61.83
2023-03-26T19:43:34.054Z,62.18
2023-03-26T19:46:02.193Z,62.34
2023-03-26T19:48:46.292Z,62.67
2023-03-26T19:51:22.115Z,62.76
2023-03-26T19:53:58.242Z,63.10
2023-03-26T19:56:27.340Z,63.05
2023-03-26T19:58:57.554Z,63.41
2023-03-26T20:01:28.336Z,63.45
2023-03-26T20:04:00.041Z,63.75
2023-03-26T20:06:43.390Z,64.31
2023-03-26T20:09:13.284Z,64.17
2023-03-26T20:11:42.039Z,64.89
2023-03-26T20:14:21.632Z,65.36
2023-03-26T20:16:49.802Z,65.96
2023-03-26T20:19:18.837Z,66.13
2023-03-26T20:21:46.858Z,65.83
2023-03-26T20:24:17.393Z,66.51
2023-03-26T20:26:46.400Z,66.55
2023-03-26T20:29:19.921Z,66.48
2023-03-26T20:31:49.436Z,66.89
2023-03-26T20:34:22.649Z,67.47
2023-03-26T20:36:55.239Z,67.73
2023-03-26T20:39:24.717Z,67.46
2023-03-26T20:41:54.369Z,67.63
2023-03-26T20:44:22.718Z,67.76
2023-03-26T20:46:51.693Z,68.09
2023-03-26T20:49:22.144Z,68.45
2023-03-26T20:51:50.948Z,68.58
2023-03-26T20:54:21.556Z,68.70
2023-03-26T20:56:50.351Z,68.97
2023-03-26T20:59:26.570Z,69.55
2023-03-26T21:01:57.349Z,69.94
2023-03-26T21:04:27.071Z,70.68
2023-03-26T21:07:03.240Z,70.79
2023-03-26T21:09:35.831Z,71.83
2023-03-26T21:12:38.217Z,71.50
2023-03-26T21:15:13.374Z,71.34
2023-03-26T21:17:51.598Z,71.66
2023-03-26T21:20:20.114Z,72.21
2023-03-26T21:23:13.275Z,71.87
2023-03-26T21:26:06.458Z,71.90
2023-03-26T21:28:42.388Z,72.38
2023-03-26T21:31:18.568Z,72.42
2023-03-26T21:33:48.347Z,72.18
2023-03-26T21:36:18.234Z,72.59
2023-03-26T21:38:46.658Z,72.47
2023-03-26T21:41:47.860Z,72.66
2023-03-26T21:44:18.526Z,73.55
2023-03-26T21:46:48.270Z,73.38
2023-03-26T21:49:18.088Z,73.94
2023-03-26T21:51:48.829Z,73.58
2023-03-26T21:54:24.876Z,73.55
2023-03-26T21:57:02.017Z,74.09
2023-03-26T21:59:39.313Z,74.31
2023-03-26T22:02:30.267Z,75.34
2023-03-26T22:05:08.213Z,75.10
2023-03-26T22:08:14.702Z,74.76
2023-03-26T22:10:42.787Z,74.71
2023-03-26T22:13:10.813Z,74.71
2023-03-26T22:15:38.888Z,74.76
2023-03-26T22:18:07.364Z,74.86
2023-03-26T22:20:35.341Z,74.87
2023-03-26T22:23:03.429Z,74.74
2023-03-26T22:25:31.502Z,74.69
2023-03-26T22:27:59.702Z,74.95
2023-03-26T22:30:28.092Z,75.10
2023-03-26T22:32:56.084Z,75.27
2023-03-26T22:35:24.513Z,75.06
2023-03-26T22:37:53.015Z,74.86
2023-03-26T22:40:29.723Z,74.78
2023-03-26T22:42:57.631Z,75.08
2023-03-26T22:45:26.584Z,75.09
2023-03-26T22:48:03.181Z,75.28
2023-03-26T22:50:33.062Z,75.46
2023-03-26T22:53:01.064Z,75.52
2023-03-26T22:55:29.800Z,75.37
2023-03-26T22:57:58.309Z,75.56
2023-03-26T23:00:26.676Z,75.56
2023-03-26T23:03:00.498Z,75.90
2023-03-26T23:05:29.438Z,75.96
2023-03-26T23:07:58.466Z,75.86
2023-03-26T23:10:26.642Z,75.44
2023-03-26T23:12:54.957Z,75.76
2023-03-26T23:15:25.914Z,75.88
2023-03-26T23:17:55.617Z,75.69
2023-03-26T23:20:24.559Z,75.89
2023-03-26T23:32:28.220Z,75.52
2023-03-26T23:34:56.450Z,76.08
2023-03-26T23:37:24.778Z,76.30
2023-03-26T23:39:52.970Z,76.49
2023-03-26T23:42:28.844Z,76.41
2023-03-26T23:44:57.891Z,76.61
2023-03-26T23:47:27.241Z,76.83
2023-03-26T23:49:56.047Z,76.66
2023-03-26T23:52:23.981Z,76.78
2023-03-26T23:54:51.900Z,76.85
2023-03-26T23:57:19.856Z,76.86
2023-03-26T23:59:48.663Z,76.96
